sensor_id;sensor_type;location;lat;lon;timestamp;P1;durP1;ratioP1;P2;durP2;ratioP2
38034;SDS011;23841;48.524;1.342;2022-12-07T00:01:57;8.20;;;4.78;;
38034;SDS011;23841;48.524;1.342;2022-12-07T00:04:23;8.55;;;5.10;;
38034;SDS011;23841;48.524;1.342;2022-12-07T00:06:50;7.35;;;4.35;;
38034;SDS011;23841;48.524;1.342;2022-12-07T00:09:17;6.70;;;4.22;;
38034;SDS011;23841;48.524;1.342;2022-12-07T00:11:44;7.75;;;4.88;;
38034;SDS011;23841;48.524;1.342;2022-12-07T00:14:14;6.90;;;4.45;;
38034;SDS011;23841;48.524;1.342;2022-12-07T00:16:39;6.85;;;4.50;;
38034;SDS011;23841;48.524;1.342;2022-12-07T00:19:05;6.85;;;4.32;;
38034;SDS011;23841;48.524;1.342;2022-12-07T00:21:31;6.60;;;4.30;;
38034;SDS011;23841;48.524;1.342;2022-12-07T00:23:56;7.45;;;4.53;;
38034;SDS011;23841;48.524;1.342;2022-12-07T00:26:23;6.50;;;4.05;;
38034;SDS011;23841;48.524;1.342;2022-12-07T00:28:52;7.28;;;4.40;;
38034;SDS011;23841;48.524;1.342;2022-12-07T00:31:19;6.47;;;4.15;;
38034;SDS011;23841;48.524;1.342;2022-12-07T00:33:44;7.25;;;4.82;;
38034;SDS011;23841;48.524;1.342;2022-12-07T00:36:12;6.05;;;3.95;;
38034;SDS011;23841;48.524;1.342;2022-12-07T00:38:38;7.82;;;4.47;;
38034;SDS011;23841;48.524;1.342;2022-12-07T00:41:05;6.78;;;4.38;;
38034;SDS011;23841;48.524;1.342;2022-12-07T00:43:30;7.68;;;4.70;;
38034;SDS011;23841;48.524;1.342;2022-12-07T00:45:59;7.75;;;4.95;;
38034;SDS011;23841;48.524;1.342;2022-12-07T00:48:26;7.38;;;4.57;;
38034;SDS011;23841;48.524;1.342;2022-12-07T00:50:52;6.97;;;4.72;;
38034;SDS011;23841;48.524;1.342;2022-12-07T00:53:18;6.75;;;4.15;;
38034;SDS011;23841;48.524;1.342;2022-12-07T00:55:43;6.35;;;4.47;;
38034;SDS011;23841;48.524;1.342;2022-12-07T00:58:09;7.47;;;4.50;;
38034;SDS011;23841;48.524;1.342;2022-12-07T01:00:35;6.47;;;4.40;;
38034;SDS011;23841;48.524;1.342;2022-12-07T01:03:00;6.72;;;4.30;;
38034;SDS011;23841;48.524;1.342;2022-12-07T01:05:26;6.70;;;4.40;;
38034;SDS011;23841;48.524;1.342;2022-12-07T01:07:51;7.47;;;4.90;;
38034;SDS011;23841;48.524;1.342;2022-12-07T01:10:17;7.13;;;4.80;;
38034;SDS011;23841;48.524;1.342;2022-12-07T01:12:42;7.18;;;5.00;;
38034;SDS011;23841;48.524;1.342;2022-12-07T01:15:07;7.68;;;4.85;;
38034;SDS011;23841;48.524;1.342;2022-12-07T01:17:33;6.70;;;4.43;;
38034;SDS011;23841;48.524;1.342;2022-12-07T01:19:59;6.15;;;4.18;;
38034;SDS011;23841;48.524;1.342;2022-12-07T01:22:24;7.22;;;4.20;;
38034;SDS011;23841;48.524;1.342;2022-12-07T01:24:50;7.00;;;4.45;;
38034;SDS011;23841;48.524;1.342;2022-12-07T01:27:15;6.60;;;4.15;;
38034;SDS011;23841;48.524;1.342;2022-12-07T01:29:40;6.82;;;4.38;;
38034;SDS011;23841;48.524;1.342;2022-12-07T01:32:06;6.95;;;4.78;;
38034;SDS011;23841;48.524;1.342;2022-12-07T01:34:31;6.57;;;4.43;;
38034;SDS011;23841;48.524;1.342;2022-12-07T01:36:56;6.15;;;4.28;;
38034;SDS011;23841;48.524;1.342;2022-12-07T01:39:22;6.05;;;4.45;;
38034;SDS011;23841;48.524;1.342;2022-12-07T01:41:47;7.20;;;4.55;;
38034;SDS011;23841;48.524;1.342;2022-12-07T01:46:38;6.57;;;4.40;;
38034;SDS011;23841;48.524;1.342;2022-12-07T01:49:08;6.35;;;4.20;;
38034;SDS011;23841;48.524;1.342;2022-12-07T01:51:34;7.32;;;4.70;;
38034;SDS011;23841;48.524;1.342;2022-12-07T01:54:02;6.88;;;4.40;;
38034;SDS011;23841;48.524;1.342;2022-12-07T01:56:27;6.28;;;4.38;;
38034;SDS011;23841;48.524;1.342;2022-12-07T01:58:53;6.68;;;4.05;;
38034;SDS011;23841;48.524;1.342;2022-12-07T02:01:20;6.25;;;3.80;;
38034;SDS011;23841;48.524;1.342;2022-12-07T02:03:45;6.22;;;3.83;;
38034;SDS011;23841;48.524;1.342;2022-12-07T02:06:12;6.47;;;3.95;;
38034;SDS011;23841;48.524;1.342;2022-12-07T02:08:38;5.97;;;3.95;;
38034;SDS011;23841;48.524;1.342;2022-12-07T02:11:04;6.45;;;4.43;;
38034;SDS011;23841;48.524;1.342;2022-12-07T02:13:30;5.25;;;3.80;;
38034;SDS011;23841;48.524;1.342;2022-12-07T02:18:25;5.47;;;3.67;;
38034;SDS011;23841;48.524;1.342;2022-12-07T02:23:34;4.95;;;3.30;;
38034;SDS011;23841;48.524;1.342;2022-12-07T02:28:31;6.78;;;4.35;;
38034;SDS011;23841;48.524;1.342;2022-12-07T02:30:59;4.78;;;3.40;;
38034;SDS011;23841;48.524;1.342;2022-12-07T02:33:32;5.25;;;3.50;;
38034;SDS011;23841;48.524;1.342;2022-12-07T02:36:02;5.70;;;3.58;;
38034;SDS011;23841;48.524;1.342;2022-12-07T02:41:01;6.18;;;3.65;;
38034;SDS011;23841;48.524;1.342;2022-12-07T02:43:28;5.18;;;3.25;;
38034;SDS011;23841;48.524;1.342;2022-12-07T02:45:56;5.40;;;3.58;;
38034;SDS011;23841;48.524;1.342;2022-12-07T02:48:22;5.75;;;3.60;;
38034;SDS011;23841;48.524;1.342;2022-12-07T02:50:51;4.78;;;3.33;;
38034;SDS011;23841;48.524;1.342;2022-12-07T02:55:54;5.53;;;3.78;;
38034;SDS011;23841;48.524;1.342;2022-12-07T02:58:23;6.25;;;3.67;;
38034;SDS011;23841;48.524;1.342;2022-12-07T03:01:28;6.57;;;4.35;;
38034;SDS011;23841;48.524;1.342;2022-12-07T03:03:44;6.50;;;4.60;;
38034;SDS011;23841;48.524;1.342;2022-12-07T03:06:22;6.45;;;4.25;;
38034;SDS011;23841;48.524;1.342;2022-12-07T03:08:56;7.18;;;4.78;;
38034;SDS011;23841;48.524;1.342;2022-12-07T03:11:33;7.70;;;4.90;;
38034;SDS011;23841;48.524;1.342;2022-12-07T03:16:30;6.47;;;4.13;;
38034;SDS011;23841;48.524;1.342;2022-12-07T03:19:31;6.05;;;3.88;;
38034;SDS011;23841;48.524;1.342;2022-12-07T03:21:50;7.20;;;4.40;;
38034;SDS011;23841;48.524;1.342;2022-12-07T03:24:18;5.55;;;4.00;;
38034;SDS011;23841;48.524;1.342;2022-12-07T03:26:46;7.30;;;4.82;;
38034;SDS011;23841;48.524;1.342;2022-12-07T03:32:09;7.05;;;4.30;;
38034;SDS011;23841;48.524;1.342;2022-12-07T03:34:46;7.72;;;4.97;;
38034;SDS011;23841;48.524;1.342;2022-12-07T03:37:19;7.75;;;5.10;;
38034;SDS011;23841;48.524;1.342;2022-12-07T03:42:12;6.55;;;4.00;;
38034;SDS011;23841;48.524;1.342;2022-12-07T03:44:37;7.82;;;4.88;;
38034;SDS011;23841;48.524;1.342;2022-12-07T03:57:11;7.95;;;5.38;;
38034;SDS011;23841;48.524;1.342;2022-12-07T03:59:38;8.10;;;5.13;;
38034;SDS011;23841;48.524;1.342;2022-12-07T04:02:05;7.53;;;4.97;;
38034;SDS011;23841;48.524;1.342;2022-12-07T04:04:30;7.82;;;5.20;;
38034;SDS011;23841;48.524;1.342;2022-12-07T04:06:55;8.95;;;4.82;;
38034;SDS011;23841;48.524;1.342;2022-12-07T04:09:21;8.82;;;5.20;;
38034;SDS011;23841;48.524;1.342;2022-12-07T04:11:46;6.75;;;4.35;;
38034;SDS011;23841;48.524;1.342;2022-12-07T04:14:12;6.75;;;4.45;;
38034;SDS011;23841;48.524;1.342;2022-12-07T04:16:47;7.78;;;4.85;;
38034;SDS011;23841;48.524;1.342;2022-12-07T04:19:12;8.55;;;5.43;;
38034;SDS011;23841;48.524;1.342;2022-12-07T04:21:38;7.38;;;4.45;;
38034;SDS011;23841;48.524;1.342;2022-12-07T04:24:03;6.90;;;4.20;;
38034;SDS011;23841;48.524;1.342;2022-12-07T04:26:29;7.05;;;4.55;;
38034;SDS011;23841;48.524;1.342;2022-12-07T04:28:54;6.85;;;4.57;;
38034;SDS011;23841;48.524;1.342;2022-12-07T04:31:19;7.75;;;4.50;;
38034;SDS011;23841;48.524;1.342;2022-12-07T04:33:44;8.13;;;4.35;;
38034;SDS011;23841;48.524;1.342;2022-12-07T04:36:10;7.75;;;4.70;;
38034;SDS011;23841;48.524;1.342;2022-12-07T04:38:35;8.10;;;5.07;;
38034;SDS011;23841;48.524;1.342;2022-12-07T04:41:06;6.90;;;4.10;;
38034;SDS011;23841;48.524;1.342;2022-12-07T04:43:32;7.45;;;4.63;;
38034;SDS011;23841;48.524;1.342;2022-12-07T04:45:58;11.07;;;5.22;;
38034;SDS011;23841;48.524;1.342;2022-12-07T04:48:23;8.60;;;5.05;;
38034;SDS011;23841;48.524;1.342;2022-12-07T04:50:48;8.05;;;4.63;;
38034;SDS011;23841;48.524;1.342;2022-12-07T04:53:16;6.03;;;3.85;;
38034;SDS011;23841;48.524;1.342;2022-12-07T04:55:42;6.47;;;4.03;;
38034;SDS011;23841;48.524;1.342;2022-12-07T04:58:07;6.90;;;4.32;;
38034;SDS011;23841;48.524;1.342;2022-12-07T05:00:32;6.10;;;3.80;;
38034;SDS011;23841;48.524;1.342;2022-12-07T05:02:58;6.97;;;3.53;;
38034;SDS011;23841;48.524;1.342;2022-12-07T05:05:23;5.82;;;3.50;;
38034;SDS011;23841;48.524;1.342;2022-12-07T05:07:49;4.65;;;3.20;;
38034;SDS011;23841;48.524;1.342;2022-12-07T05:10:15;4.95;;;3.25;;
38034;SDS011;23841;48.524;1.342;2022-12-07T05:12:40;5.32;;;3.10;;
38034;SDS011;23841;48.524;1.342;2022-12-07T05:15:05;4.03;;;2.90;;
38034;SDS011;23841;48.524;1.342;2022-12-07T05:17:30;3.60;;;2.60;;
38034;SDS011;23841;48.524;1.342;2022-12-07T05:19:56;4.40;;;2.80;;
38034;SDS011;23841;48.524;1.342;2022-12-07T05:22:21;3.78;;;2.45;;
38034;SDS011;23841;48.524;1.342;2022-12-07T05:24:46;3.75;;;2.35;;
38034;SDS011;23841;48.524;1.342;2022-12-07T05:27:12;3.22;;;2.15;;
38034;SDS011;23841;48.524;1.342;2022-12-07T05:29:37;3.28;;;2.25;;
38034;SDS011;23841;48.524;1.342;2022-12-07T05:32:02;4.20;;;2.50;;
38034;SDS011;23841;48.524;1.342;2022-12-07T05:34:27;3.65;;;2.03;;
38034;SDS011;23841;48.524;1.342;2022-12-07T05:36:53;3.10;;;2.00;;
38034;SDS011;23841;48.524;1.342;2022-12-07T05:39:18;2.88;;;1.88;;
38034;SDS011;23841;48.524;1.342;2022-12-07T05:41:43;3.00;;;1.88;;
38034;SDS011;23841;48.524;1.342;2022-12-07T05:44:27;2.75;;;1.92;;
38034;SDS011;23841;48.524;1.342;2022-12-07T05:46:52;3.25;;;2.05;;
38034;SDS011;23841;48.524;1.342;2022-12-07T05:49:18;3.53;;;2.30;;
38034;SDS011;23841;48.524;1.342;2022-12-07T05:51:44;2.92;;;1.80;;
38034;SDS011;23841;48.524;1.342;2022-12-07T05:54:12;3.33;;;1.98;;
38034;SDS011;23841;48.524;1.342;2022-12-07T05:56:37;3.08;;;2.30;;
38034;SDS011;23841;48.524;1.342;2022-12-07T05:59:03;3.75;;;2.25;;
38034;SDS011;23841;48.524;1.342;2022-12-07T06:01:47;3.28;;;2.15;;
38034;SDS011;23841;48.524;1.342;2022-12-07T06:04:12;3.50;;;2.22;;
38034;SDS011;23841;48.524;1.342;2022-12-07T06:06:37;3.55;;;1.92;;
38034;SDS011;23841;48.524;1.342;2022-12-07T06:09:03;3.55;;;1.98;;
38034;SDS011;23841;48.524;1.342;2022-12-07T06:11:28;3.35;;;2.38;;
38034;SDS011;23841;48.524;1.342;2022-12-07T06:14:12;3.42;;;2.55;;
38034;SDS011;23841;48.524;1.342;2022-12-07T06:16:37;3.92;;;2.42;;
38034;SDS011;23841;48.524;1.342;2022-12-07T06:19:03;3.55;;;2.25;;
38034;SDS011;23841;48.524;1.342;2022-12-07T06:21:28;3.58;;;2.33;;
38034;SDS011;23841;48.524;1.342;2022-12-07T06:23:54;3.60;;;2.20;;
38034;SDS011;23841;48.524;1.342;2022-12-07T06:26:19;3.25;;;2.08;;
38034;SDS011;23841;48.524;1.342;2022-12-07T06:28:45;3.30;;;2.30;;
38034;SDS011;23841;48.524;1.342;2022-12-07T06:31:10;3.50;;;2.08;;
38034;SDS011;23841;48.524;1.342;2022-12-07T06:33:35;4.30;;;2.63;;
38034;SDS011;23841;48.524;1.342;2022-12-07T06:36:01;3.67;;;2.40;;
38034;SDS011;23841;48.524;1.342;2022-12-07T06:38:26;3.90;;;2.50;;
38034;SDS011;23841;48.524;1.342;2022-12-07T06:40:52;4.97;;;2.60;;
38034;SDS011;23841;48.524;1.342;2022-12-07T06:43:18;4.68;;;2.80;;
38034;SDS011;23841;48.524;1.342;2022-12-07T06:45:43;5.43;;;2.70;;
38034;SDS011;23841;48.524;1.342;2022-12-07T06:48:08;3.67;;;2.22;;
38034;SDS011;23841;48.524;1.342;2022-12-07T06:50:33;3.75;;;2.22;;
38034;SDS011;23841;48.524;1.342;2022-12-07T06:52:59;4.40;;;2.75;;
38034;SDS011;23841;48.524;1.342;2022-12-07T06:55:24;4.45;;;2.60;;
38034;SDS011;23841;48.524;1.342;2022-12-07T06:57:49;5.05;;;2.97;;
38034;SDS011;23841;48.524;1.342;2022-12-07T07:00:15;4.22;;;2.70;;
38034;SDS011;23841;48.524;1.342;2022-12-07T07:02:41;3.72;;;2.40;;
38034;SDS011;23841;48.524;1.342;2022-12-07T07:05:06;4.80;;;2.75;;
38034;SDS011;23841;48.524;1.342;2022-12-07T07:07:31;5.03;;;3.13;;
38034;SDS011;23841;48.524;1.342;2022-12-07T07:09:57;5.90;;;2.72;;
38034;SDS011;23841;48.524;1.342;2022-12-07T07:12:25;5.30;;;3.25;;
38034;SDS011;23841;48.524;1.342;2022-12-07T07:14:50;5.35;;;3.22;;
38034;SDS011;23841;48.524;1.342;2022-12-07T07:17:16;5.80;;;2.88;;
38034;SDS011;23841;48.524;1.342;2022-12-07T07:19:41;5.03;;;3.10;;
38034;SDS011;23841;48.524;1.342;2022-12-07T07:22:06;5.50;;;3.08;;
38034;SDS011;23841;48.524;1.342;2022-12-07T07:24:31;11.55;;;4.50;;
38034;SDS011;23841;48.524;1.342;2022-12-07T07:26:58;5.20;;;2.85;;
38034;SDS011;23841;48.524;1.342;2022-12-07T07:29:23;4.25;;;2.60;;
38034;SDS011;23841;48.524;1.342;2022-12-07T07:31:49;5.60;;;2.83;;
38034;SDS011;23841;48.524;1.342;2022-12-07T07:34:14;4.85;;;3.20;;
38034;SDS011;23841;48.524;1.342;2022-12-07T07:36:39;5.93;;;3.65;;
38034;SDS011;23841;48.524;1.342;2022-12-07T07:39:04;6.05;;;3.47;;
38034;SDS011;23841;48.524;1.342;2022-12-07T07:41:30;4.90;;;3.00;;
38034;SDS011;23841;48.524;1.342;2022-12-07T07:43:56;5.38;;;3.70;;
38034;SDS011;23841;48.524;1.342;2022-12-07T07:46:21;5.57;;;3.67;;
38034;SDS011;23841;48.524;1.342;2022-12-07T07:48:46;4.43;;;2.92;;
38034;SDS011;23841;48.524;1.342;2022-12-07T07:51:12;5.03;;;3.20;;
38034;SDS011;23841;48.524;1.342;2022-12-07T07:53:37;5.60;;;3.03;;
38034;SDS011;23841;48.524;1.342;2022-12-07T07:56:03;5.78;;;3.22;;
38034;SDS011;23841;48.524;1.342;2022-12-07T07:58:28;5.30;;;3.20;;
38034;SDS011;23841;48.524;1.342;2022-12-07T08:00:53;5.75;;;3.50;;
38034;SDS011;23841;48.524;1.342;2022-12-07T08:03:19;6.13;;;3.53;;
38034;SDS011;23841;48.524;1.342;2022-12-07T08:05:45;4.97;;;3.15;;
38034;SDS011;23841;48.524;1.342;2022-12-07T08:08:10;5.03;;;3.33;;
38034;SDS011;23841;48.524;1.342;2022-12-07T08:10:35;4.30;;;2.85;;
38034;SDS011;23841;48.524;1.342;2022-12-07T08:13:02;6.57;;;3.20;;
38034;SDS011;23841;48.524;1.342;2022-12-07T08:15:37;5.63;;;3.30;;
38034;SDS011;23841;48.524;1.342;2022-12-07T08:18:03;6.43;;;3.65;;
38034;SDS011;23841;48.524;1.342;2022-12-07T08:20:32;6.15;;;3.63;;
38034;SDS011;23841;48.524;1.342;2022-12-07T08:22:57;4.85;;;3.00;;
38034;SDS011;23841;48.524;1.342;2022-12-07T08:25:23;5.45;;;3.10;;
38034;SDS011;23841;48.524;1.342;2022-12-07T08:27:51;5.28;;;3.20;;
38034;SDS011;23841;48.524;1.342;2022-12-07T08:30:17;5.60;;;3.28;;
38034;SDS011;23841;48.524;1.342;2022-12-07T08:32:43;6.80;;;3.25;;
38034;SDS011;23841;48.524;1.342;2022-12-07T08:35:09;5.85;;;3.60;;
38034;SDS011;23841;48.524;1.342;2022-12-07T08:37:34;6.57;;;3.47;;
38034;SDS011;23841;48.524;1.342;2022-12-07T08:39:59;5.10;;;3.22;;
38034;SDS011;23841;48.524;1.342;2022-12-07T08:42:24;5.65;;;3.50;;
38034;SDS011;23841;48.524;1.342;2022-12-07T08:44:54;5.50;;;3.40;;
38034;SDS011;23841;48.524;1.342;2022-12-07T08:47:19;5.20;;;3.25;;
38034;SDS011;23841;48.524;1.342;2022-12-07T08:49:45;5.47;;;3.15;;
38034;SDS011;23841;48.524;1.342;2022-12-07T08:52:12;5.78;;;3.63;;
38034;SDS011;23841;48.524;1.342;2022-12-07T08:54:38;6.68;;;3.08;;
38034;SDS011;23841;48.524;1.342;2022-12-07T08:57:04;6.60;;;4.03;;
38034;SDS011;23841;48.524;1.342;2022-12-07T08:59:29;6.25;;;3.75;;
38034;SDS011;23841;48.524;1.342;2022-12-07T09:01:55;6.10;;;3.45;;
38034;SDS011;23841;48.524;1.342;2022-12-07T09:04:20;6.50;;;3.53;;
38034;SDS011;23841;48.524;1.342;2022-12-07T09:06:46;6.10;;;3.47;;
38034;SDS011;23841;48.524;1.342;2022-12-07T09:09:11;7.07;;;4.22;;
38034;SDS011;23841;48.524;1.342;2022-12-07T09:11:38;7.28;;;3.65;;
38034;SDS011;23841;48.524;1.342;2022-12-07T09:14:04;6.32;;;3.88;;
38034;SDS011;23841;48.524;1.342;2022-12-07T09:16:29;6.25;;;4.25;;
38034;SDS011;23841;48.524;1.342;2022-12-07T09:18:54;6.00;;;3.25;;
38034;SDS011;23841;48.524;1.342;2022-12-07T09:21:19;7.75;;;4.75;;
38034;SDS011;23841;48.524;1.342;2022-12-07T09:23:45;7.82;;;4.25;;
38034;SDS011;23841;48.524;1.342;2022-12-07T09:26:10;7.43;;;3.88;;
38034;SDS011;23841;48.524;1.342;2022-12-07T09:28:35;6.10;;;3.72;;
38034;SDS011;23841;48.524;1.342;2022-12-07T09:31:02;8.10;;;3.83;;
38034;SDS011;23841;48.524;1.342;2022-12-07T09:33:27;5.00;;;3.22;;
38034;SDS011;23841;48.524;1.342;2022-12-07T09:35:52;5.88;;;3.20;;
38034;SDS011;23841;48.524;1.342;2022-12-07T09:38:18;6.38;;;3.90;;
38034;SDS011;23841;48.524;1.342;2022-12-07T09:40:44;7.47;;;4.15;;
38034;SDS011;23841;48.524;1.342;2022-12-07T09:43:17;6.88;;;4.20;;
38034;SDS011;23841;48.524;1.342;2022-12-07T09:45:43;6.70;;;4.05;;
38034;SDS011;23841;48.524;1.342;2022-12-07T09:48:15;7.95;;;4.50;;
38034;SDS011;23841;48.524;1.342;2022-12-07T09:50:41;8.20;;;4.38;;
38034;SDS011;23841;48.524;1.342;2022-12-07T09:53:13;8.57;;;4.63;;
38034;SDS011;23841;48.524;1.342;2022-12-07T09:55:39;6.55;;;3.90;;
38034;SDS011;23841;48.524;1.342;2022-12-07T09:58:05;7.82;;;4.28;;
38034;SDS011;23841;48.524;1.342;2022-12-07T10:00:31;8.60;;;4.63;;
38034;SDS011;23841;48.524;1.342;2022-12-07T10:05:28;7.60;;;4.20;;
38034;SDS011;23841;48.524;1.342;2022-12-07T10:07:55;7.75;;;4.18;;
38034;SDS011;23841;48.524;1.342;2022-12-07T10:10:25;7.97;;;4.50;;
38034;SDS011;23841;48.524;1.342;2022-12-07T10:13:04;7.38;;;4.55;;
38034;SDS011;23841;48.524;1.342;2022-12-07T10:21:26;7.38;;;4.82;;
38034;SDS011;23841;48.524;1.342;2022-12-07T10:24:03;7.18;;;4.63;;
38034;SDS011;23841;48.524;1.342;2022-12-07T10:28:54;8.60;;;5.00;;
38034;SDS011;23841;48.524;1.342;2022-12-07T10:31:21;6.45;;;4.05;;
38034;SDS011;23841;48.524;1.342;2022-12-07T10:33:57;7.50;;;4.40;;
38034;SDS011;23841;48.524;1.342;2022-12-07T10:38:50;7.93;;;4.75;;
38034;SDS011;23841;48.524;1.342;2022-12-07T10:41:15;7.90;;;4.47;;
38034;SDS011;23841;48.524;1.342;2022-12-07T10:43:48;8.00;;;5.00;;
38034;SDS011;23841;48.524;1.342;2022-12-07T10:48:54;6.60;;;4.57;;
38034;SDS011;23841;48.524;1.342;2022-12-07T11:05:09;10.23;;;5.65;;
38034;SDS011;23841;48.524;1.342;2022-12-07T11:07:10;9.10;;;5.80;;
38034;SDS011;23841;48.524;1.342;2022-12-07T11:12:05;8.45;;;5.68;;
38034;SDS011;23841;48.524;1.342;2022-12-07T11:17:01;9.05;;;5.53;;
38034;SDS011;23841;48.524;1.342;2022-12-07T11:22:31;11.57;;;6.88;;
38034;SDS011;23841;48.524;1.342;2022-12-07T11:25:43;10.68;;;6.85;;
38034;SDS011;23841;48.524;1.342;2022-12-07T11:33:22;11.07;;;6.30;;
38034;SDS011;23841;48.524;1.342;2022-12-07T11:38:17;13.32;;;7.63;;
38034;SDS011;23841;48.524;1.342;2022-12-07T11:40:45;13.55;;;8.13;;
38034;SDS011;23841;48.524;1.342;2022-12-07T11:45:37;12.85;;;7.88;;
38034;SDS011;23841;48.524;1.342;2022-12-07T11:48:09;12.68;;;8.02;;
38034;SDS011;23841;48.524;1.342;2022-12-07T11:50:38;11.57;;;7.30;;
38034;SDS011;23841;48.524;1.342;2022-12-07T11:53:10;10.90;;;6.45;;
38034;SDS011;23841;48.524;1.342;2022-12-07T11:55:40;13.40;;;7.53;;
38034;SDS011;23841;48.524;1.342;2022-12-07T12:00:41;12.20;;;7.15;;
38034;SDS011;23841;48.524;1.342;2022-12-07T12:03:10;11.77;;;6.90;;
38034;SDS011;23841;48.524;1.342;2022-12-07T12:05:38;12.82;;;7.75;;
38034;SDS011;23841;48.524;1.342;2022-12-07T12:08:21;10.98;;;6.57;;
38034;SDS011;23841;48.524;1.342;2022-12-07T12:11:08;12.48;;;7.22;;
38034;SDS011;23841;48.524;1.342;2022-12-07T12:16:17;11.93;;;6.60;;
38034;SDS011;23841;48.524;1.342;2022-12-07T12:21:18;11.65;;;7.13;;
38034;SDS011;23841;48.524;1.342;2022-12-07T12:23:50;10.88;;;6.20;;
38034;SDS011;23841;48.524;1.342;2022-12-07T12:26:21;10.07;;;6.10;;
38034;SDS011;23841;48.524;1.342;2022-12-07T12:33:56;10.80;;;6.38;;
38034;SDS011;23841;48.524;1.342;2022-12-07T12:44:00;9.20;;;5.20;;
38034;SDS011;23841;48.524;1.342;2022-12-07T12:51:46;10.90;;;5.82;;
38034;SDS011;23841;48.524;1.342;2022-12-07T13:01:49;10.68;;;6.05;;
38034;SDS011;23841;48.524;1.342;2022-12-07T13:04:21;8.55;;;4.93;;
38034;SDS011;23841;48.524;1.342;2022-12-07T13:06:48;10.45;;;5.47;;
38034;SDS011;23841;48.524;1.342;2022-12-07T13:09:20;9.23;;;5.25;;
38034;SDS011;23841;48.524;1.342;2022-12-07T13:11:50;10.43;;;5.78;;
38034;SDS011;23841;48.524;1.342;2022-12-07T13:17:08;8.02;;;4.68;;
38034;SDS011;23841;48.524;1.342;2022-12-07T13:24:50;11.43;;;4.82;;
38034;SDS011;23841;48.524;1.342;2022-12-07T13:27:19;7.45;;;4.53;;
38034;SDS011;23841;48.524;1.342;2022-12-07T13:29:44;6.97;;;4.03;;
38034;SDS011;23841;48.524;1.342;2022-12-07T13:32:22;7.38;;;4.72;;
38034;SDS011;23841;48.524;1.342;2022-12-07T13:34:48;7.35;;;4.07;;
38034;SDS011;23841;48.524;1.342;2022-12-07T13:39:46;9.50;;;4.47;;
38034;SDS011;23841;48.524;1.342;2022-12-07T13:42:33;8.18;;;4.57;;
38034;SDS011;23841;48.524;1.342;2022-12-07T13:44:58;7.15;;;4.07;;
38034;SDS011;23841;48.524;1.342;2022-12-07T13:49:53;7.90;;;4.55;;
38034;SDS011;23841;48.524;1.342;2022-12-07T13:57:13;8.20;;;5.03;;
38034;SDS011;23841;48.524;1.342;2022-12-07T13:59:39;9.45;;;5.35;;
38034;SDS011;23841;48.524;1.342;2022-12-07T14:02:21;9.32;;;5.28;;
38034;SDS011;23841;48.524;1.342;2022-12-07T14:04:48;10.48;;;5.68;;
38034;SDS011;23841;48.524;1.342;2022-12-07T14:07:27;11.43;;;6.05;;
38034;SDS011;23841;48.524;1.342;2022-12-07T14:09:53;11.52;;;6.75;;
38034;SDS011;23841;48.524;1.342;2022-12-07T14:12:19;11.95;;;5.90;;
38034;SDS011;23841;48.524;1.342;2022-12-07T14:14:46;13.10;;;6.72;;
38034;SDS011;23841;48.524;1.342;2022-12-07T14:17:16;11.30;;;5.78;;
38034;SDS011;23841;48.524;1.342;2022-12-07T14:24:45;10.38;;;5.93;;
38034;SDS011;23841;48.524;1.342;2022-12-07T14:27:18;11.55;;;6.05;;
38034;SDS011;23841;48.524;1.342;2022-12-07T14:29:45;12.15;;;7.13;;
38034;SDS011;23841;48.524;1.342;2022-12-07T14:32:24;13.13;;;6.55;;
38034;SDS011;23841;48.524;1.342;2022-12-07T14:35:12;12.07;;;6.70;;
38034;SDS011;23841;48.524;1.342;2022-12-07T14:37:39;12.98;;;7.15;;
38034;SDS011;23841;48.524;1.342;2022-12-07T14:40:05;13.00;;;7.05;;
38034;SDS011;23841;48.524;1.342;2022-12-07T14:42:31;12.50;;;6.88;;
38034;SDS011;23841;48.524;1.342;2022-12-07T14:44:57;12.68;;;6.88;;
38034;SDS011;23841;48.524;1.342;2022-12-07T14:47:24;12.85;;;6.97;;
38034;SDS011;23841;48.524;1.342;2022-12-07T14:49:51;13.20;;;7.22;;
38034;SDS011;23841;48.524;1.342;2022-12-07T14:52:18;12.15;;;6.97;;
38034;SDS011;23841;48.524;1.342;2022-12-07T14:54:51;14.57;;;7.30;;
38034;SDS011;23841;48.524;1.342;2022-12-07T14:57:16;13.45;;;7.03;;
38034;SDS011;23841;48.524;1.342;2022-12-07T14:59:45;11.88;;;7.07;;
38034;SDS011;23841;48.524;1.342;2022-12-07T15:02:14;11.48;;;6.57;;
38034;SDS011;23841;48.524;1.342;2022-12-07T15:04:39;14.23;;;7.30;;
38034;SDS011;23841;48.524;1.342;2022-12-07T15:07:09;12.73;;;6.47;;
38034;SDS011;23841;48.524;1.342;2022-12-07T15:09:35;13.75;;;6.75;;
38034;SDS011;23841;48.524;1.342;2022-12-07T15:12:02;12.70;;;6.75;;
38034;SDS011;23841;48.524;1.342;2022-12-07T15:14:28;10.15;;;5.85;;
38034;SDS011;23841;48.524;1.342;2022-12-07T15:16:54;13.35;;;6.75;;
38034;SDS011;23841;48.524;1.342;2022-12-07T15:19:20;9.68;;;5.70;;
38034;SDS011;23841;48.524;1.342;2022-12-07T15:21:48;14.80;;;6.45;;
38034;SDS011;23841;48.524;1.342;2022-12-07T15:24:14;11.10;;;6.10;;
38034;SDS011;23841;48.524;1.342;2022-12-07T15:26:39;11.15;;;6.20;;
38034;SDS011;23841;48.524;1.342;2022-12-07T15:29:05;12.40;;;5.65;;
38034;SDS011;23841;48.524;1.342;2022-12-07T15:31:31;11.90;;;5.85;;
38034;SDS011;23841;48.524;1.342;2022-12-07T15:33:56;11.52;;;6.35;;
38034;SDS011;23841;48.524;1.342;2022-12-07T15:36:23;11.57;;;6.13;;
38034;SDS011;23841;48.524;1.342;2022-12-07T15:38:49;12.57;;;6.03;;
38034;SDS011;23841;48.524;1.342;2022-12-07T15:41:14;10.63;;;5.32;;
38034;SDS011;23841;48.524;1.342;2022-12-07T15:43:39;10.00;;;5.78;;
38034;SDS011;23841;48.524;1.342;2022-12-07T15:46:28;10.70;;;5.30;;
38034;SDS011;23841;48.524;1.342;2022-12-07T15:48:54;10.38;;;5.20;;
38034;SDS011;23841;48.524;1.342;2022-12-07T15:51:19;13.13;;;5.45;;
38034;SDS011;23841;48.524;1.342;2022-12-07T15:53:44;8.43;;;4.85;;
38034;SDS011;23841;48.524;1.342;2022-12-07T15:56:09;11.10;;;5.70;;
38034;SDS011;23841;48.524;1.342;2022-12-07T15:58:35;12.15;;;4.95;;
38034;SDS011;23841;48.524;1.342;2022-12-07T16:01:00;8.75;;;4.90;;
38034;SDS011;23841;48.524;1.342;2022-12-07T16:03:26;12.65;;;6.38;;
38034;SDS011;23841;48.524;1.342;2022-12-07T16:05:52;7.93;;;4.53;;
38034;SDS011;23841;48.524;1.342;2022-12-07T16:08:18;11.45;;;5.18;;
38034;SDS011;23841;48.524;1.342;2022-12-07T16:10:43;9.88;;;4.57;;
38034;SDS011;23841;48.524;1.342;2022-12-07T16:13:11;8.88;;;4.90;;
38034;SDS011;23841;48.524;1.342;2022-12-07T16:15:41;9.40;;;4.95;;
38034;SDS011;23841;48.524;1.342;2022-12-07T16:18:07;8.05;;;4.70;;
38034;SDS011;23841;48.524;1.342;2022-12-07T16:20:32;8.77;;;4.35;;
38034;SDS011;23841;48.524;1.342;2022-12-07T16:22:57;9.45;;;5.13;;
38034;SDS011;23841;48.524;1.342;2022-12-07T16:25:23;8.32;;;4.45;;
38034;SDS011;23841;48.524;1.342;2022-12-07T16:27:48;8.43;;;4.90;;
38034;SDS011;23841;48.524;1.342;2022-12-07T16:30:14;10.30;;;5.28;;
38034;SDS011;23841;48.524;1.342;2022-12-07T16:32:41;9.90;;;5.07;;
38034;SDS011;23841;48.524;1.342;2022-12-07T16:35:06;9.45;;;5.32;;
38034;SDS011;23841;48.524;1.342;2022-12-07T16:37:32;9.15;;;5.38;;
38034;SDS011;23841;48.524;1.342;2022-12-07T16:39:57;10.52;;;5.60;;
38034;SDS011;23841;48.524;1.342;2022-12-07T16:42:23;11.70;;;5.65;;
38034;SDS011;23841;48.524;1.342;2022-12-07T16:44:48;9.60;;;5.88;;
38034;SDS011;23841;48.524;1.342;2022-12-07T16:47:13;11.30;;;5.80;;
38034;SDS011;23841;48.524;1.342;2022-12-07T16:49:39;12.63;;;6.30;;
38034;SDS011;23841;48.524;1.342;2022-12-07T16:52:04;9.85;;;5.95;;
38034;SDS011;23841;48.524;1.342;2022-12-07T16:54:30;11.48;;;6.20;;
38034;SDS011;23841;48.524;1.342;2022-12-07T16:56:58;12.88;;;6.65;;
38034;SDS011;23841;48.524;1.342;2022-12-07T16:59:23;11.90;;;6.32;;
38034;SDS011;23841;48.524;1.342;2022-12-07T17:01:48;11.32;;;6.30;;
38034;SDS011;23841;48.524;1.342;2022-12-07T17:04:13;10.07;;;5.88;;